createdAt,value
2017-01-22T00:00:08.559Z,0
2017-01-22T00:01:19.285Z,0
2017-01-22T00:02:29.982Z,0
2017-01-22T00:03:40.723Z,0
2017-01-22T00:04:51.458Z,0
2017-01-22T00:06:02.169Z,0
2017-01-22T00:07:12.898Z,0
2017-01-22T00:08:23.615Z,0
2017-01-22T00:09:34.353Z,0
2017-01-22T00:10:45.098Z,0
2017-01-22T00:11:55.799Z,0
2017-01-22T00:13:06.899Z,0
2017-01-22T00:14:17.612Z,0
2017-01-22T00:15:28.345Z,0
2017-01-22T00:16:39.086Z,0
2017-01-22T00:17:49.788Z,0
2017-01-22T00:19:00.521Z,0
2017-01-22T00:20:11.265Z,0
2017-01-22T00:21:21.998Z,0
2017-01-22T00:22:32.713Z,0
2017-01-22T00:23:43.457Z,0
2017-01-22T00:24:54.172Z,0
2017-01-22T00:26:04.921Z,0
2017-01-22T00:27:15.640Z,0
2017-01-22T00:28:26.413Z,0
2017-01-22T00:29:37.159Z,0
2017-01-22T00:30:47.887Z,0
2017-01-22T00:31:58.586Z,0
2017-01-22T00:33:09.329Z,0
2017-01-22T00:34:20.075Z,0
2017-01-22T00:35:30.792Z,0
2017-01-22T00:36:41.531Z,0
2017-01-22T00:37:52.242Z,0
2017-01-22T00:39:02.978Z,0
2017-01-22T00:40:13.704Z,0
2017-01-22T00:41:24.427Z,0
2017-01-22T00:42:35.148Z,0
2017-01-22T00:43:45.868Z,0
2017-01-22T00:44:56.606Z,0
2017-01-22T00:46:07.361Z,0
2017-01-22T00:47:18.434Z,0
2017-01-22T00:48:29.198Z,0
2017-01-22T00:49:39.938Z,0
2017-01-22T00:50:50.701Z,0
2017-01-22T00:52:01.405Z,0
2017-01-22T00:53:12.150Z,0
2017-01-22T00:54:22.855Z,0
2017-01-22T00:55:33.577Z,0
2017-01-22T00:56:44.317Z,0
2017-01-22T00:57:55.050Z,0
2017-01-22T00:59:05.792Z,0
2017-01-22T01:00:16.514Z,0
2017-01-22T01:01:27.233Z,0
2017-01-22T01:02:37.969Z,0
2017-01-22T01:03:48.704Z,0
2017-01-22T01:04:59.423Z,0
2017-01-22T01:06:10.146Z,0
2017-01-22T01:07:20.861Z,0
2017-01-22T01:08:31.558Z,0
2017-01-22T01:09:42.285Z,0
2017-01-22T01:10:53.003Z,0
2017-01-22T01:12:03.720Z,0
2017-01-22T01:13:14.419Z,0
2017-01-22T01:14:25.143Z,0
2017-01-22T01:15:35.857Z,0
2017-01-22T01:16:46.582Z,0
2017-01-22T01:17:57.329Z,0
2017-01-22T01:19:08.069Z,0
2017-01-22T01:20:18.783Z,0
2017-01-22T01:21:29.528Z,0
2017-01-22T01:22:40.266Z,0
2017-01-22T01:23:50.983Z,0
2017-01-22T01:25:01.708Z,0
2017-01-22T01:26:12.467Z,0
2017-01-22T01:27:23.238Z,0
2017-01-22T01:28:33.980Z,0
2017-01-22T01:29:44.687Z,0
2017-01-22T01:30:55.398Z,0
2017-01-22T01:32:06.172Z,0
2017-01-22T01:33:16.892Z,0
2017-01-22T01:34:27.639Z,0
2017-01-22T01:35:38.365Z,0
2017-01-22T01:36:49.085Z,0
2017-01-22T01:37:59.806Z,0
2017-01-22T01:39:10.519Z,0
2017-01-22T01:40:21.265Z,0
2017-01-22T01:41:32.015Z,0
2017-01-22T01:42:42.760Z,0
2017-01-22T01:43:53.486Z,0
2017-01-22T01:45:04.200Z,0
2017-01-22T01:46:14.932Z,0
2017-01-22T01:47:25.649Z,0
2017-01-22T01:48:36.363Z,0
2017-01-22T01:49:47.090Z,0
2017-01-22T01:50:57.812Z,0
2017-01-22T01:52:08.515Z,0
2017-01-22T01:53:19.228Z,0
2017-01-22T01:54:29.942Z,0
2017-01-22T01:55:40.692Z,0
2017-01-22T01:56:51.416Z,0
2017-01-22T01:58:02.139Z,0
2017-01-22T01:59:12.862Z,0
2017-01-22T02:00:23.604Z,0
2017-01-22T02:01:34.326Z,0
2017-01-22T02:02:45.050Z,0
2017-01-22T02:03:55.793Z,0
2017-01-22T02:05:06.491Z,0
2017-01-22T02:06:17.210Z,0
2017-01-22T02:07:27.948Z,0
2017-01-22T02:08:38.672Z,0
2017-01-22T02:09:49.419Z,0
2017-01-22T02:11:00.143Z,0
2017-01-22T02:12:10.870Z,0
2017-01-22T02:13:21.588Z,0
2017-01-22T02:14:32.299Z,0
2017-01-22T02:15:43.006Z,0
2017-01-22T02:16:53.752Z,0
2017-01-22T02:18:04.462Z,0
2017-01-22T02:19:15.194Z,0
2017-01-22T02:20:25.936Z,0
2017-01-22T02:21:36.642Z,0
2017-01-22T02:22:47.406Z,0
2017-01-22T02:23:58.103Z,0
2017-01-22T02:25:09.219Z,0
2017-01-22T02:26:19.919Z,0
2017-01-22T02:27:30.619Z,0
2017-01-22T02:28:41.335Z,0
2017-01-22T02:29:52.075Z,0
2017-01-22T02:31:02.778Z,0
2017-01-22T02:32:13.474Z,0
2017-01-22T02:33:24.166Z,0
2017-01-22T02:34:34.897Z,0
2017-01-22T02:35:45.612Z,0
2017-01-22T02:36:56.330Z,0
2017-01-22T02:38:07.453Z,0
2017-01-22T02:39:18.150Z,0
2017-01-22T02:40:28.888Z,0
2017-01-22T02:41:39.630Z,0
2017-01-22T02:42:50.360Z,0
2017-01-22T02:44:01.086Z,0
2017-01-22T02:45:11.819Z,0
2017-01-22T02:46:22.538Z,0
2017-01-22T02:47:33.239Z,0
2017-01-22T02:48:43.944Z,0
2017-01-22T02:49:54.670Z,0
2017-01-22T02:51:05.423Z,0
2017-01-22T02:52:16.152Z,0
2017-01-22T02:53:26.901Z,0
2017-01-22T02:54:37.618Z,0
2017-01-22T02:55:48.321Z,0
2017-01-22T02:56:59.015Z,0
2017-01-22T02:58:09.777Z,0
2017-01-22T02:59:20.508Z,0
2017-01-22T03:00:31.198Z,0
2017-01-22T03:01:41.923Z,0
2017-01-22T03:02:52.640Z,0
2017-01-22T03:04:03.367Z,0
2017-01-22T03:05:14.086Z,0
2017-01-22T03:06:24.821Z,0
2017-01-22T03:07:35.571Z,0
2017-01-22T03:08:46.291Z,0
2017-01-22T03:09:57.041Z,0
2017-01-22T03:11:07.737Z,0
2017-01-22T03:12:18.436Z,0
2017-01-22T03:13:29.146Z,0
2017-01-22T03:14:39.867Z,0
2017-01-22T03:15:50.575Z,0
2017-01-22T03:17:01.337Z,0
2017-01-22T03:18:12.081Z,0
2017-01-22T03:19:22.786Z,0
2017-01-22T03:20:33.484Z,0
2017-01-22T03:21:44.193Z,0
2017-01-22T03:22:54.926Z,0
2017-01-22T03:24:05.668Z,0
2017-01-22T03:25:16.409Z,0
2017-01-22T03:26:27.152Z,0
2017-01-22T03:27:37.905Z,0
2017-01-22T03:28:48.630Z,0
2017-01-22T03:29:59.369Z,0
2017-01-22T03:31:10.098Z,0
2017-01-22T03:32:20.839Z,0
2017-01-22T03:33:31.566Z,0
2017-01-22T03:34:42.267Z,0
2017-01-22T03:35:52.995Z,0
2017-01-22T03:37:03.724Z,0
2017-01-22T03:38:14.462Z,0
2017-01-22T03:39:25.211Z,0
2017-01-22T03:40:35.933Z,0
2017-01-22T03:41:46.635Z,0
2017-01-22T03:42:57.358Z,0
2017-01-22T03:44:08.093Z,0
2017-01-22T03:45:18.796Z,0
2017-01-22T03:46:29.523Z,0
2017-01-22T03:47:40.256Z,0
2017-01-22T03:48:51.004Z,0
2017-01-22T03:50:01.708Z,0
2017-01-22T03:51:12.427Z,0
2017-01-22T03:52:23.164Z,0
2017-01-22T03:53:33.885Z,0
2017-01-22T03:54:44.618Z,0
2017-01-22T03:55:55.352Z,0
2017-01-22T03:57:06.084Z,0
2017-01-22T03:58:16.802Z,0
2017-01-22T03:59:27.530Z,0
2017-01-22T04:00:38.269Z,0
2017-01-22T04:01:49.011Z,0
2017-01-22T04:02:59.729Z,0
2017-01-22T04:04:10.478Z,0
2017-01-22T04:05:21.210Z,0
2017-01-22T04:06:31.948Z,0
2017-01-22T04:07:42.695Z,0
2017-01-22T04:08:53.416Z,0
2017-01-22T04:10:04.153Z,0
2017-01-22T04:11:14.892Z,0
2017-01-22T04:12:25.599Z,0
2017-01-22T04:13:36.329Z,0
2017-01-22T04:14:47.049Z,0
2017-01-22T04:15:57.784Z,0
2017-01-22T04:17:08.517Z,0
2017-01-22T04:18:19.276Z,0
2017-01-22T04:19:30.009Z,0
2017-01-22T04:20:40.732Z,0
2017-01-22T04:21:51.446Z,0
2017-01-22T04:23:02.172Z,0
2017-01-22T04:24:12.912Z,0
2017-01-22T04:25:23.637Z,0
2017-01-22T04:26:34.402Z,0
2017-01-22T04:27:45.128Z,0
2017-01-22T04:28:55.855Z,0
2017-01-22T04:30:06.596Z,0
2017-01-22T04:31:17.311Z,0
2017-01-22T04:32:28.041Z,0
2017-01-22T04:33:38.777Z,0
2017-01-22T04:34:49.495Z,0
2017-01-22T04:36:00.198Z,0
2017-01-22T04:37:10.922Z,0
2017-01-22T04:38:21.646Z,0
2017-01-22T04:39:32.362Z,0
2017-01-22T04:40:43.065Z,0
2017-01-22T04:41:53.771Z,0
2017-01-22T04:43:04.503Z,0
2017-01-22T04:44:15.225Z,0
2017-01-22T04:45:25.943Z,0
2017-01-22T04:46:36.641Z,0
2017-01-22T04:47:47.384Z,0
2017-01-22T04:48:58.082Z,0
2017-01-22T04:50:08.818Z,0
2017-01-22T04:51:19.575Z,0
2017-01-22T04:52:30.279Z,0
2017-01-22T04:53:41.017Z,0
2017-01-22T04:54:51.735Z,0
2017-01-22T04:56:02.459Z,0
2017-01-22T04:57:13.176Z,0
2017-01-22T04:58:23.897Z,0
2017-01-22T04:59:34.619Z,0
2017-01-22T05:00:45.368Z,0
2017-01-22T05:01:56.094Z,0
2017-01-22T05:03:06.808Z,0
2017-01-22T05:04:17.503Z,0
2017-01-22T05:05:28.216Z,0
2017-01-22T05:06:38.938Z,0
2017-01-22T05:07:49.668Z,0
2017-01-22T05:09:00.406Z,0
2017-01-22T05:10:11.149Z,0
2017-01-22T05:11:21.882Z,0
2017-01-22T05:12:32.606Z,0
2017-01-22T05:13:43.347Z,0
2017-01-22T05:14:54.089Z,0
2017-01-22T05:16:04.802Z,0
2017-01-22T05:17:15.564Z,0
2017-01-22T05:18:26.280Z,0
2017-01-22T05:19:36.976Z,0
2017-01-22T05:20:47.672Z,0
2017-01-22T05:21:58.365Z,0
2017-01-22T05:23:09.082Z,0
2017-01-22T05:24:19.809Z,0
2017-01-22T05:25:30.530Z,0
2017-01-22T05:26:41.247Z,0
2017-01-22T05:27:51.985Z,0
2017-01-22T05:29:02.718Z,0
2017-01-22T05:30:13.439Z,0
2017-01-22T05:31:24.131Z,0
2017-01-22T05:32:34.845Z,0
2017-01-22T05:33:45.577Z,0
2017-01-22T05:34:56.297Z,0
2017-01-22T05:36:07.015Z,0
2017-01-22T05:37:18.134Z,0
2017-01-22T05:38:28.874Z,0
2017-01-22T05:39:39.603Z,0
2017-01-22T05:40:50.345Z,0
2017-01-22T05:42:01.070Z,0
2017-01-22T05:43:12.147Z,0
2017-01-22T05:44:22.862Z,0
2017-01-22T05:45:33.567Z,0
2017-01-22T05:46:44.331Z,0
2017-01-22T05:47:55.057Z,0
2017-01-22T05:49:05.824Z,0
2017-01-22T05:50:16.541Z,0
2017-01-22T05:51:27.265Z,0
2017-01-22T05:52:37.967Z,0
2017-01-22T05:53:48.684Z,0
2017-01-22T05:54:59.428Z,0
2017-01-22T05:56:10.526Z,0
2017-01-22T05:57:21.247Z,0
2017-01-22T05:58:31.980Z,0
2017-01-22T05:59:42.702Z,0
2017-01-22T06:00:53.410Z,0
2017-01-22T06:02:04.105Z,0
2017-01-22T06:03:14.839Z,0
2017-01-22T06:04:25.546Z,0
2017-01-22T06:05:36.270Z,0
2017-01-22T06:06:47.004Z,0
2017-01-22T06:07:57.712Z,0
2017-01-22T06:09:08.406Z,0
2017-01-22T06:10:19.142Z,0
2017-01-22T06:11:29.845Z,0
2017-01-22T06:12:40.549Z,0
2017-01-22T06:13:51.267Z,0
2017-01-22T06:15:02.006Z,0
2017-01-22T06:16:12.708Z,0
2017-01-22T06:17:23.419Z,0
2017-01-22T06:18:34.139Z,0
2017-01-22T06:19:44.857Z,0
2017-01-22T06:20:55.581Z,0
2017-01-22T06:22:06.291Z,0
2017-01-22T06:23:17.024Z,0
2017-01-22T06:24:27.741Z,0
2017-01-22T06:25:38.479Z,0
2017-01-22T06:26:49.215Z,0
2017-01-22T06:27:59.937Z,0
2017-01-22T06:29:10.639Z,0
2017-01-22T06:30:21.336Z,0
2017-01-22T06:31:32.097Z,0
2017-01-22T06:32:42.813Z,0
2017-01-22T06:33:53.562Z,0
2017-01-22T06:35:04.304Z,0
2017-01-22T06:36:15.029Z,0
2017-01-22T06:37:25.751Z,0
2017-01-22T06:38:36.480Z,0
2017-01-22T06:39:47.204Z,0
2017-01-22T06:40:57.949Z,0
2017-01-22T06:42:08.681Z,0
2017-01-22T06:43:19.411Z,0
2017-01-22T06:44:30.138Z,0
2017-01-22T06:45:40.859Z,0
2017-01-22T06:46:51.590Z,0
2017-01-22T06:48:02.324Z,5
2017-01-22T06:49:13.039Z,5
2017-01-22T06:50:23.742Z,5
2017-01-22T06:51:34.457Z,5
2017-01-22T06:52:45.195Z,5
2017-01-22T06:53:55.916Z,5
2017-01-22T06:55:06.625Z,10
2017-01-22T06:56:17.346Z,10
2017-01-22T06:57:28.061Z,10
2017-01-22T06:58:38.816Z,10
2017-01-22T06:59:49.557Z,15
2017-01-22T07:01:00.302Z,15
2017-01-22T07:02:11.040Z,15
2017-01-22T07:03:21.764Z,15
2017-01-22T07:04:32.465Z,20
2017-01-22T07:05:43.188Z,20
2017-01-22T07:06:53.908Z,20
2017-01-22T07:08:04.671Z,25
2017-01-22T07:09:15.412Z,25
2017-01-22T07:10:26.144Z,30
2017-01-22T07:11:36.855Z,30
2017-01-22T07:12:47.579Z,35
2017-01-22T07:13:58.295Z,35
2017-01-22T07:15:09.005Z,35
2017-01-22T07:16:19.738Z,40
2017-01-22T07:17:30.467Z,40
2017-01-22T07:18:41.218Z,45
2017-01-22T07:19:51.950Z,45
2017-01-22T07:21:02.679Z,50
2017-01-22T07:22:13.440Z,50
2017-01-22T07:23:24.177Z,55
2017-01-22T07:24:34.898Z,55
2017-01-22T07:25:45.638Z,60
2017-01-22T07:26:56.737Z,65
2017-01-22T07:28:07.833Z,65
2017-01-22T07:29:18.558Z,65
2017-01-22T07:30:29.273Z,70
2017-01-22T07:31:39.997Z,70
2017-01-22T07:32:50.735Z,70
2017-01-22T07:34:01.463Z,75
2017-01-22T07:35:12.206Z,80
2017-01-22T07:36:22.931Z,80
2017-01-22T07:37:33.625Z,85
2017-01-22T07:38:44.337Z,90
2017-01-22T07:39:55.068Z,90
2017-01-22T07:41:05.819Z,95
2017-01-22T07:42:16.556Z,100
2017-01-22T07:43:27.260Z,95
2017-01-22T07:44:37.994Z,100
2017-01-22T07:45:48.737Z,115
2017-01-22T07:46:59.502Z,105
2017-01-22T07:48:10.262Z,110
2017-01-22T07:49:20.982Z,110
2017-01-22T07:50:31.746Z,110
2017-01-22T07:51:42.498Z,135
2017-01-22T07:52:53.226Z,115
2017-01-22T07:54:03.944Z,125
2017-01-22T07:55:14.666Z,120
2017-01-22T07:56:25.400Z,130
2017-01-22T07:57:36.145Z,135
2017-01-22T07:58:46.853Z,135
2017-01-22T07:59:57.570Z,135
2017-01-22T08:01:08.293Z,170
2017-01-22T08:02:19.029Z,130
2017-01-22T08:03:29.774Z,135
2017-01-22T08:04:40.481Z,145
2017-01-22T08:05:51.219Z,175
2017-01-22T08:07:01.945Z,160
2017-01-22T08:08:12.666Z,140
2017-01-22T08:09:23.409Z,165
2017-01-22T08:10:34.133Z,170
2017-01-22T08:11:44.827Z,145
2017-01-22T08:12:55.555Z,180
2017-01-22T08:14:06.291Z,155
2017-01-22T08:15:17.011Z,175
2017-01-22T08:16:27.711Z,190
2017-01-22T08:17:38.437Z,200
2017-01-22T08:18:49.172Z,175
2017-01-22T08:19:59.899Z,185
2017-01-22T08:21:10.623Z,200
2017-01-22T08:22:21.343Z,190
2017-01-22T08:23:32.482Z,190
2017-01-22T08:24:43.228Z,220
2017-01-22T08:25:53.934Z,205
2017-01-22T08:27:04.653Z,195
2017-01-22T08:28:15.365Z,210
2017-01-22T08:29:26.108Z,210
2017-01-22T08:30:36.853Z,180
2017-01-22T08:31:47.562Z,190
2017-01-22T08:32:58.278Z,270
2017-01-22T08:34:08.981Z,285
2017-01-22T08:35:19.712Z,190
2017-01-22T08:36:30.440Z,215
2017-01-22T08:37:41.179Z,305
2017-01-22T08:38:51.904Z,210
2017-01-22T08:40:02.621Z,245
2017-01-22T08:41:13.366Z,305
2017-01-22T08:42:24.113Z,235
2017-01-22T08:43:34.862Z,230
2017-01-22T08:44:45.593Z,280
2017-01-22T08:45:56.327Z,320
2017-01-22T08:47:07.075Z,220
2017-01-22T08:48:17.793Z,290
2017-01-22T08:49:28.538Z,265
2017-01-22T08:50:39.242Z,255
2017-01-22T08:51:49.960Z,240
2017-01-22T08:53:00.706Z,255
2017-01-22T08:54:11.426Z,240
2017-01-22T08:55:22.206Z,280
2017-01-22T08:56:32.927Z,230
2017-01-22T08:57:43.644Z,230
2017-01-22T08:58:54.394Z,220
2017-01-22T09:00:05.117Z,225
2017-01-22T09:01:15.835Z,210
2017-01-22T09:02:26.553Z,210
2017-01-22T09:03:37.274Z,215
2017-01-22T09:04:48.000Z,215
2017-01-22T09:05:58.717Z,220
2017-01-22T09:07:09.439Z,220
2017-01-22T09:08:20.179Z,210
2017-01-22T09:09:30.900Z,210
2017-01-22T09:10:41.642Z,210
2017-01-22T09:11:52.389Z,210
2017-01-22T09:13:03.138Z,215
2017-01-22T09:14:13.867Z,220
2017-01-22T09:15:24.611Z,245
2017-01-22T09:16:35.335Z,225
2017-01-22T09:17:46.060Z,270
2017-01-22T09:18:56.777Z,225
2017-01-22T09:20:07.485Z,220
2017-01-22T09:21:18.210Z,215
2017-01-22T09:22:28.935Z,215
2017-01-22T09:23:39.662Z,220
2017-01-22T09:24:50.407Z,220
2017-01-22T09:26:01.116Z,215
2017-01-22T09:27:11.839Z,220
2017-01-22T09:28:22.569Z,220
2017-01-22T09:29:33.265Z,220
2017-01-22T09:30:43.962Z,220
2017-01-22T09:31:54.658Z,215
2017-01-22T09:33:05.778Z,215
2017-01-22T09:34:16.499Z,215
2017-01-22T09:35:27.213Z,210
2017-01-22T09:36:37.943Z,215
2017-01-22T09:37:48.661Z,215
2017-01-22T09:38:59.407Z,215
2017-01-22T09:40:10.126Z,215
2017-01-22T09:41:20.827Z,215
2017-01-22T09:42:31.548Z,215
2017-01-22T09:43:42.295Z,215
2017-01-22T09:44:53.019Z,215
2017-01-22T09:46:03.752Z,215
2017-01-22T09:47:14.480Z,220
2017-01-22T09:48:25.196Z,220
2017-01-22T09:49:35.941Z,220
2017-01-22T09:50:46.689Z,220
2017-01-22T09:51:57.442Z,220
2017-01-22T09:53:08.164Z,215
2017-01-22T09:54:18.858Z,220
2017-01-22T09:55:29.593Z,225
2017-01-22T09:56:40.306Z,220
2017-01-22T09:57:51.022Z,220
2017-01-22T09:59:01.762Z,220
2017-01-22T10:00:12.506Z,220
2017-01-22T10:01:23.231Z,225
2017-01-22T10:02:33.931Z,220
2017-01-22T10:03:44.648Z,220
2017-01-22T10:04:55.386Z,225
2017-01-22T10:06:06.494Z,225
2017-01-22T10:07:17.190Z,225
2017-01-22T10:08:27.888Z,225
2017-01-22T10:09:38.607Z,225
2017-01-22T10:10:49.328Z,225
2017-01-22T10:12:00.046Z,225
2017-01-22T10:13:10.758Z,225
2017-01-22T10:14:21.489Z,225
2017-01-22T10:15:32.212Z,230
2017-01-22T10:16:43.359Z,225
2017-01-22T10:17:54.075Z,225
2017-01-22T10:19:04.817Z,230
2017-01-22T10:20:15.533Z,230
2017-01-22T10:21:26.240Z,225
2017-01-22T10:22:36.987Z,230
2017-01-22T10:23:47.707Z,230
2017-01-22T10:24:58.447Z,225
2017-01-22T10:26:09.167Z,225
2017-01-22T10:27:19.950Z,225
2017-01-22T10:28:30.696Z,225
2017-01-22T10:29:41.431Z,225
2017-01-22T10:30:52.152Z,230
2017-01-22T10:32:02.884Z,225
2017-01-22T10:33:13.646Z,230
2017-01-22T10:34:24.364Z,230
2017-01-22T10:35:35.095Z,230
2017-01-22T10:36:45.841Z,230
2017-01-22T10:37:56.557Z,235
2017-01-22T10:39:07.281Z,230
2017-01-22T10:40:18.021Z,230
2017-01-22T10:41:28.722Z,230
2017-01-22T10:42:39.442Z,230
2017-01-22T10:43:50.155Z,230
2017-01-22T10:45:00.911Z,230
2017-01-22T10:46:11.609Z,230
2017-01-22T10:47:22.345Z,230
2017-01-22T10:48:33.064Z,235
2017-01-22T10:49:43.794Z,235
2017-01-22T10:50:54.534Z,230
2017-01-22T10:52:05.252Z,230
2017-01-22T10:53:16.003Z,230
2017-01-22T10:54:26.732Z,230
2017-01-22T10:55:37.462Z,235
2017-01-22T10:56:48.194Z,235
2017-01-22T10:57:58.967Z,230
2017-01-22T10:59:09.691Z,230
2017-01-22T11:00:20.428Z,230
2017-01-22T11:01:31.157Z,230
2017-01-22T11:02:41.894Z,230
2017-01-22T11:03:52.595Z,230
2017-01-22T11:05:03.354Z,230
2017-01-22T11:06:14.091Z,230
2017-01-22T11:07:24.825Z,230
2017-01-22T11:08:35.536Z,230
2017-01-22T11:09:46.256Z,230
2017-01-22T11:10:57.000Z,230
2017-01-22T11:12:07.746Z,230
2017-01-22T11:13:18.468Z,230
2017-01-22T11:14:29.204Z,235
2017-01-22T11:15:39.934Z,230
2017-01-22T11:16:50.677Z,230
2017-01-22T11:18:01.393Z,230
2017-01-22T11:19:12.095Z,230
2017-01-22T11:20:22.811Z,230
2017-01-22T11:21:33.547Z,230
2017-01-22T11:22:44.285Z,230
2017-01-22T11:23:55.008Z,230
2017-01-22T11:25:05.745Z,230
2017-01-22T11:26:16.462Z,230
2017-01-22T11:27:27.190Z,230
2017-01-22T11:28:37.930Z,230
2017-01-22T11:29:48.682Z,230
2017-01-22T11:30:59.407Z,230
2017-01-22T11:32:10.126Z,230
2017-01-22T11:33:20.824Z,230
2017-01-22T11:34:31.550Z,225
2017-01-22T11:35:42.287Z,225
2017-01-22T11:36:53.013Z,230
2017-01-22T11:38:03.752Z,230
2017-01-22T11:39:14.471Z,230
2017-01-22T11:40:25.221Z,230
2017-01-22T11:41:35.963Z,230
2017-01-22T11:42:46.691Z,230
2017-01-22T11:43:57.390Z,230
2017-01-22T11:45:08.113Z,230
2017-01-22T11:46:18.805Z,230
2017-01-22T11:47:29.525Z,230
2017-01-22T11:48:40.227Z,230
2017-01-22T11:49:50.940Z,230
2017-01-22T11:51:01.641Z,230
2017-01-22T11:52:12.374Z,230
2017-01-22T11:53:23.125Z,230
2017-01-22T11:54:33.824Z,230
2017-01-22T11:55:44.527Z,230
2017-01-22T11:56:55.270Z,225
2017-01-22T11:58:05.991Z,225
2017-01-22T11:59:16.730Z,225
2017-01-22T12:00:27.474Z,225
2017-01-22T12:01:38.203Z,225
2017-01-22T12:02:48.925Z,225
2017-01-22T12:03:59.645Z,225
2017-01-22T12:05:10.366Z,225
2017-01-22T12:06:21.090Z,225
2017-01-22T12:07:31.800Z,225
2017-01-22T12:08:42.548Z,225
2017-01-22T12:09:53.289Z,230
2017-01-22T12:11:03.987Z,225
2017-01-22T12:12:14.731Z,225
2017-01-22T12:13:25.441Z,225
2017-01-22T12:14:36.156Z,225
2017-01-22T12:15:46.911Z,225
2017-01-22T12:16:57.669Z,225
2017-01-22T12:18:08.412Z,225
2017-01-22T12:19:19.131Z,225
2017-01-22T12:20:29.836Z,225
2017-01-22T12:21:40.587Z,220
2017-01-22T12:22:51.281Z,225
2017-01-22T12:24:01.996Z,220
2017-01-22T12:25:12.727Z,220
2017-01-22T12:26:23.462Z,220
2017-01-22T12:27:34.192Z,220
2017-01-22T12:28:44.911Z,220
2017-01-22T12:29:55.654Z,220
2017-01-22T12:31:06.368Z,220
2017-01-22T12:32:17.115Z,220
2017-01-22T12:33:27.852Z,220
2017-01-22T12:34:38.574Z,215
2017-01-22T12:35:49.311Z,220
2017-01-22T12:37:00.051Z,220
2017-01-22T12:38:10.794Z,215
2017-01-22T12:39:21.515Z,215
2017-01-22T12:40:32.286Z,215
2017-01-22T12:41:43.016Z,220
2017-01-22T12:42:54.165Z,215
2017-01-22T12:44:04.902Z,215
2017-01-22T12:45:15.634Z,215
2017-01-22T12:46:26.392Z,215
2017-01-22T12:47:37.165Z,215
2017-01-22T12:48:47.869Z,215
2017-01-22T12:49:58.607Z,210
2017-01-22T12:51:09.335Z,210
2017-01-22T12:52:20.053Z,210
2017-01-22T12:53:30.767Z,210
2017-01-22T12:54:41.476Z,210
2017-01-22T12:55:52.169Z,210
2017-01-22T12:57:02.893Z,210
2017-01-22T12:58:13.627Z,210
2017-01-22T12:59:24.376Z,210
2017-01-22T13:00:35.105Z,205
2017-01-22T13:01:45.825Z,205
2017-01-22T13:02:56.563Z,205
2017-01-22T13:04:07.294Z,205
2017-01-22T13:05:18.015Z,205
2017-01-22T13:06:28.736Z,205
2017-01-22T13:07:39.444Z,205
2017-01-22T13:08:50.148Z,205
2017-01-22T13:10:00.870Z,200
2017-01-22T13:11:11.610Z,200
2017-01-22T13:12:22.358Z,205
2017-01-22T13:13:33.102Z,200
2017-01-22T13:14:43.847Z,200
2017-01-22T13:15:54.548Z,200
2017-01-22T13:17:05.251Z,195
2017-01-22T13:18:15.971Z,195
2017-01-22T13:19:26.691Z,195
2017-01-22T13:20:37.403Z,195
2017-01-22T13:21:48.135Z,195
2017-01-22T13:22:58.893Z,195
2017-01-22T13:24:09.616Z,195
2017-01-22T13:25:20.345Z,190
2017-01-22T13:26:31.063Z,190
2017-01-22T13:27:41.784Z,190
2017-01-22T13:28:52.487Z,190
2017-01-22T13:30:03.197Z,190
2017-01-22T13:31:13.922Z,190
2017-01-22T13:32:24.620Z,190
2017-01-22T13:33:35.314Z,185
2017-01-22T13:34:46.011Z,185
2017-01-22T13:35:56.711Z,185
2017-01-22T13:37:07.455Z,185
2017-01-22T13:38:18.179Z,185
2017-01-22T13:39:28.910Z,180
2017-01-22T13:40:39.620Z,180
2017-01-22T13:41:50.361Z,180
2017-01-22T13:43:01.062Z,185
2017-01-22T13:44:11.798Z,180
2017-01-22T13:45:22.541Z,175
2017-01-22T13:46:33.266Z,175
2017-01-22T13:47:44.012Z,175
2017-01-22T13:48:54.711Z,175
2017-01-22T13:50:05.450Z,175
2017-01-22T13:51:16.207Z,170
2017-01-22T13:52:26.942Z,170
2017-01-22T13:53:37.689Z,170
2017-01-22T13:54:48.447Z,170
2017-01-22T13:55:59.170Z,165
2017-01-22T13:57:09.910Z,165
2017-01-22T13:58:20.629Z,165
2017-01-22T13:59:31.328Z,165
2017-01-22T14:00:42.043Z,160
2017-01-22T14:01:52.743Z,160
2017-01-22T14:03:03.448Z,160
2017-01-22T14:04:14.190Z,160
2017-01-22T14:05:24.898Z,155
2017-01-22T14:06:35.657Z,155
2017-01-22T14:07:46.418Z,155
2017-01-22T14:08:57.143Z,150
2017-01-22T14:10:07.869Z,150
2017-01-22T14:11:18.591Z,150
2017-01-22T14:12:29.327Z,150
2017-01-22T14:13:40.057Z,145
2017-01-22T14:14:50.770Z,145
2017-01-22T14:16:01.517Z,145
2017-01-22T14:17:12.643Z,140
2017-01-22T14:18:23.363Z,140
2017-01-22T14:19:34.101Z,140
2017-01-22T14:20:44.803Z,135
2017-01-22T14:21:55.526Z,135
2017-01-22T14:23:06.245Z,135
2017-01-22T14:24:16.972Z,130
2017-01-22T14:25:27.690Z,130
2017-01-22T14:26:38.411Z,130
2017-01-22T14:27:49.149Z,125
2017-01-22T14:28:59.875Z,125
2017-01-22T14:30:10.596Z,125
2017-01-22T14:31:21.319Z,120
2017-01-22T14:32:32.055Z,120
2017-01-22T14:33:42.775Z,120
2017-01-22T14:34:53.883Z,115
2017-01-22T14:36:04.619Z,115
2017-01-22T14:37:15.365Z,115
2017-01-22T14:38:26.110Z,110
2017-01-22T14:39:36.843Z,110
2017-01-22T14:40:47.577Z,105
2017-01-22T14:41:58.333Z,105
2017-01-22T14:43:09.069Z,105
2017-01-22T14:44:19.799Z,100
2017-01-22T14:45:30.517Z,100
2017-01-22T14:46:41.257Z,95
2017-01-22T14:47:51.965Z,95
2017-01-22T14:49:02.706Z,95
2017-01-22T14:50:13.423Z,90
2017-01-22T14:51:24.155Z,90
2017-01-22T14:52:34.874Z,90
2017-01-22T14:53:45.586Z,90
2017-01-22T14:54:56.336Z,85
2017-01-22T14:56:07.061Z,85
2017-01-22T14:57:17.778Z,85
2017-01-22T14:58:28.519Z,80
2017-01-22T14:59:39.224Z,80
2017-01-22T15:00:49.940Z,75
2017-01-22T15:02:00.677Z,75
2017-01-22T15:03:11.400Z,70
2017-01-22T15:04:22.125Z,70
2017-01-22T15:05:32.844Z,65
2017-01-22T15:06:43.562Z,65
2017-01-22T15:07:54.291Z,60
2017-01-22T15:09:05.040Z,60
2017-01-22T15:10:15.779Z,55
2017-01-22T15:11:26.521Z,55
2017-01-22T15:12:37.245Z,50
2017-01-22T15:13:47.977Z,50
2017-01-22T15:14:58.701Z,45
2017-01-22T15:16:09.417Z,45
2017-01-22T15:17:20.142Z,40
2017-01-22T15:18:30.854Z,40
2017-01-22T15:19:41.578Z,40
2017-01-22T15:20:52.321Z,35
2017-01-22T15:22:03.037Z,35
2017-01-22T15:23:13.781Z,30
2017-01-22T15:24:24.488Z,30
2017-01-22T15:25:35.203Z,25
2017-01-22T15:26:45.906Z,25
2017-01-22T15:27:56.647Z,25
2017-01-22T15:29:07.410Z,20
2017-01-22T15:30:18.164Z,20
2017-01-22T15:31:28.893Z,20
2017-01-22T15:32:39.635Z,15
2017-01-22T15:33:50.379Z,15
2017-01-22T15:35:01.099Z,15
2017-01-22T15:36:11.838Z,15
2017-01-22T15:37:22.581Z,10
2017-01-22T15:38:33.285Z,10
2017-01-22T15:39:44.398Z,10
2017-01-22T15:40:55.152Z,10
2017-01-22T15:42:05.892Z,5
2017-01-22T15:43:16.597Z,5
2017-01-22T15:44:27.334Z,5
2017-01-22T15:45:38.065Z,5
2017-01-22T15:46:48.780Z,5
2017-01-22T15:47:59.495Z,5
2017-01-22T15:49:10.579Z,0
2017-01-22T15:50:21.294Z,0
2017-01-22T15:51:32.010Z,0
2017-01-22T15:52:42.740Z,0
2017-01-22T15:53:53.458Z,0
2017-01-22T15:55:04.155Z,0
2017-01-22T15:56:14.894Z,0
2017-01-22T15:57:25.623Z,0
2017-01-22T15:58:36.347Z,0
2017-01-22T15:59:47.067Z,0
2017-01-22T16:00:57.787Z,0
2017-01-22T16:02:08.504Z,0
2017-01-22T16:03:19.246Z,0
2017-01-22T16:04:29.974Z,0
2017-01-22T16:05:40.695Z,0
2017-01-22T16:06:51.434Z,0
2017-01-22T16:08:02.138Z,0
2017-01-22T16:09:12.873Z,0
2017-01-22T16:10:23.630Z,0
2017-01-22T16:11:34.351Z,0
2017-01-22T16:12:45.067Z,0
2017-01-22T16:13:55.803Z,0
2017-01-22T16:15:06.514Z,0
2017-01-22T16:16:17.234Z,0
2017-01-22T16:17:28.326Z,0
2017-01-22T16:18:39.051Z,0
2017-01-22T16:19:49.764Z,0
2017-01-22T16:21:00.468Z,0
2017-01-22T16:22:11.203Z,0
2017-01-22T16:23:21.952Z,0
2017-01-22T16:24:32.698Z,0
2017-01-22T16:25:43.445Z,0
2017-01-22T16:26:54.212Z,0
2017-01-22T16:28:04.965Z,0
2017-01-22T16:29:15.671Z,0
2017-01-22T16:30:26.389Z,0
2017-01-22T16:31:37.077Z,0
2017-01-22T16:32:47.820Z,0
2017-01-22T16:33:58.541Z,0
2017-01-22T16:35:09.273Z,0
2017-01-22T16:36:19.994Z,0
2017-01-22T16:37:30.709Z,0
2017-01-22T16:38:41.408Z,0
2017-01-22T16:39:52.143Z,0
2017-01-22T16:41:02.877Z,0
2017-01-22T16:42:13.587Z,0
2017-01-22T16:43:24.308Z,0
2017-01-22T16:44:35.026Z,0
2017-01-22T16:45:45.748Z,0
2017-01-22T16:46:56.525Z,0
2017-01-22T16:48:07.239Z,0
2017-01-22T16:49:17.972Z,0
2017-01-22T16:50:28.696Z,0